Time;durP1;ratioP1;P1;durP2;ratioP2;P2;SDS_P1;SDS_P2;PMS_P1;PMS_P2;Temp;Humidity;BMP_temperature;BMP_pressure;BME280_temperature;BME280_humidity;BME280_pressure;Samples;Min_cycle;Max_cycle;Signal;HPM_P1;HPM_P2
2023/08/22 00:00:31;;;;;;;6.70;4.73;;;16.70;89.20;;;;;;5029193;28;20291;-69
2023/08/22 00:03:00;;;;;;;9.00;5.33;;;16.70;89.00;;;;;;5024735;28;20347;-69
2023/08/22 00:05:26;;;;;;;9.27;4.87;;;16.70;89.10;;;;;;5029388;28;20374;-69
2023/08/22 00:07:53;;;;;;;7.33;4.80;;;16.70;89.10;;;;;;5029353;28;20391;-69
2023/08/22 00:10:19;;;;;;;7.87;4.87;;;16.70;89.10;;;;;;5009455;28;20116;-69
2023/08/22 00:12:45;;;;;;;10.30;5.30;;;16.70;89.10;;;;;;5028981;28;20368;-69
2023/08/22 00:15:13;;;;;;;9.90;4.83;;;16.70;89.10;;;;;;5029742;28;20094;-69
2023/08/22 00:17:40;;;;;;;10.30;5.33;;;16.70;89.30;;;;;;5029728;28;20489;-69
2023/08/22 00:20:09;;;;;;;7.37;5.17;;;16.60;89.40;;;;;;5025344;28;20296;-69
2023/08/22 00:22:36;;;;;;;10.77;5.53;;;16.60;89.30;;;;;;5028349;28;20288;-69
2023/08/22 00:25:02;;;;;;;8.57;5.00;;;16.60;89.20;;;;;;5028318;28;20326;-69
2023/08/22 00:27:28;;;;;;;7.27;5.13;;;16.60;89.50;;;;;;5022631;28;20418;-69
2023/08/22 00:29:55;;;;;;;9.63;4.70;;;16.50;89.60;;;;;;5028544;28;20350;-69
2023/08/22 00:32:20;;;;;;;8.67;5.40;;;16.50;89.70;;;;;;5025823;28;20052;-69
2023/08/22 00:34:46;;;;;;;9.33;5.27;;;16.40;89.70;;;;;;5024037;28;20862;-70
2023/08/22 00:37:12;;;;;;;10.90;5.03;;;16.30;90.00;;;;;;5025299;28;20037;-69
2023/08/22 00:39:38;;;;;;;6.57;5.17;;;16.30;89.90;;;;;;5027520;28;20044;-69
2023/08/22 00:42:03;;;;;;;11.90;5.33;;;16.20;89.90;;;;;;5029698;28;20075;-69
2023/08/22 00:44:29;;;;;;;10.43;5.17;;;16.20;90.00;;;;;;5028854;28;20095;-69
2023/08/22 00:46:55;;;;;;;8.17;5.17;;;16.20;90.10;;;;;;5028634;28;20037;-69
2023/08/22 00:49:21;;;;;;;9.50;6.17;;;16.20;90.30;;;;;;5023488;28;20504;-69
2023/08/22 00:51:47;;;;;;;8.60;5.60;;;16.20;90.70;;;;;;5006180;28;20285;-69
2023/08/22 00:54:14;;;;;;;8.87;5.03;;;16.20;90.70;;;;;;5028574;28;20041;-69
2023/08/22 00:56:42;;;;;;;7.50;5.67;;;16.30;90.80;;;;;;5029647;28;20310;-69
2023/08/22 00:59:08;;;;;;;7.97;4.83;;;16.30;90.80;;;;;;5020648;28;20307;-69
2023/08/22 01:01:34;;;;;;;8.07;5.60;;;16.30;90.70;;;;;;5013688;28;20753;-69
2023/08/22 01:04:00;;;;;;;6.77;5.20;;;16.30;90.90;;;;;;5024691;28;20296;-69
2023/08/22 01:06:35;;;;;;;9.50;5.70;;;16.30;90.80;;;;;;5024245;28;20049;-69
2023/08/22 01:09:10;;;;;;;8.77;5.80;;;16.30;91.00;;;;;;5032331;28;20037;-69
2023/08/22 01:11:40;;;;;;;11.65;5.82;;;16.30;91.80;;;;;;5031497;28;20288;-69
2023/08/22 01:14:09;;;;;;;10.30;6.33;;;16.30;91.30;;;;;;5026747;28;20147;-69
2023/08/22 01:16:36;;;;;;;11.27;5.77;;;16.30;91.20;;;;;;5033595;28;20370;-69
2023/08/22 01:19:04;;;;;;;8.17;5.70;;;16.30;91.10;;;;;;5033951;28;20283;-69
2023/08/22 01:21:34;;;;;;;8.17;5.73;;;16.40;91.10;;;;;;5031853;28;20365;-69
2023/08/22 01:24:02;;;;;;;9.93;5.93;;;16.30;91.00;;;;;;5029625;28;20656;-69
2023/08/22 01:26:27;;;;;;;11.33;5.97;;;16.40;91.30;;;;;;5031225;28;20314;-69
2023/08/22 01:29:01;;;;;;;8.87;5.73;;;16.30;91.40;;;;;;5027626;28;20298;-69
2023/08/22 01:31:56;;;;;;;9.60;5.77;;;16.30;91.50;;;;;;5028724;28;20676;-69
2023/08/22 01:34:26;;;;;;;8.95;5.70;;;16.30;91.20;;;;;;5016098;28;20775;-69
2023/08/22 01:36:54;;;;;;;12.30;5.27;;;16.30;91.10;;;;;;5029706;28;20041;-69
2023/08/22 01:39:22;;;;;;;10.00;5.90;;;16.20;91.10;;;;;;5028471;28;21140;-69
2023/08/22 01:41:49;;;;;;;10.83;5.70;;;16.20;91.00;;;;;;5031330;28;20287;-69
2023/08/22 01:44:15;;;;;;;7.80;5.53;;;16.10;91.10;;;;;;5015466;28;20283;-69
2023/08/22 01:46:40;;;;;;;8.60;5.57;;;16.10;91.20;;;;;;5026958;28;20373;-69
2023/08/22 01:49:06;;;;;;;10.27;6.37;;;16.00;91.20;;;;;;5025926;28;20064;-69
2023/08/22 01:51:32;;;;;;;13.00;6.83;;;16.00;91.20;;;;;;5008645;28;20041;-69
2023/08/22 01:53:58;;;;;;;13.87;6.30;;;15.90;91.60;;;;;;5031497;28;20116;-69
2023/08/22 01:56:24;;;;;;;8.33;6.03;;;15.80;92.00;;;;;;5030540;28;20059;-69
2023/08/22 01:58:50;;;;;;;8.23;5.43;;;15.70;91.90;;;;;;5011950;28;20448;-69
2023/08/22 02:01:15;;;;;;;9.73;5.67;;;15.70;92.00;;;;;;5029394;28;20280;-69
2023/08/22 02:03:42;;;;;;;11.33;7.60;;;15.60;92.10;;;;;;5010848;28;20051;-69
2023/08/22 02:06:08;;;;;;;8.63;6.27;;;15.60;92.00;;;;;;5027827;28;20623;-69
2023/08/22 02:08:34;;;;;;;10.47;6.23;;;15.50;92.20;;;;;;5013634;28;20279;-69
2023/08/22 02:10:59;;;;;;;9.87;6.97;;;15.50;92.20;;;;;;5012447;28;20037;-69
2023/08/22 02:13:25;;;;;;;9.77;6.47;;;15.50;92.50;;;;;;5031096;28;20493;-69
2023/08/22 02:15:51;;;;;;;10.97;7.07;;;15.40;92.60;;;;;;5023416;28;20055;-69
2023/08/22 02:18:16;;;;;;;10.53;6.47;;;15.40;92.50;;;;;;5029262;28;20051;-69
2023/08/22 02:20:42;;;;;;;10.17;6.73;;;15.30;92.40;;;;;;5031347;28;20045;-69
2023/08/22 02:23:08;;;;;;;10.27;6.80;;;15.30;92.50;;;;;;5028851;28;20040;-69
2023/08/22 02:25:35;;;;;;;13.53;7.70;;;15.20;92.50;;;;;;5015394;28;20044;-69
2023/08/22 02:28:03;;;;;;;11.40;6.50;;;15.20;92.80;;;;;;5027184;28;20311;-69
2023/08/22 02:30:28;;;;;;;11.17;7.80;;;15.20;92.90;;;;;;5030036;28;20842;-69
2023/08/22 02:32:54;;;;;;;11.20;7.30;;;15.20;93.00;;;;;;5029308;28;20358;-69
2023/08/22 02:35:20;;;;;;;10.43;7.33;;;15.20;93.00;;;;;;5023146;28;20501;-69
2023/08/22 02:37:46;;;;;;;11.33;7.20;;;15.20;93.20;;;;;;5012750;28;20466;-69
2023/08/22 02:40:12;;;;;;;11.27;7.80;;;15.20;93.30;;;;;;5029897;28;20037;-69
2023/08/22 02:42:38;;;;;;;9.47;7.67;;;15.10;93.50;;;;;;5028522;28;20612;-69
2023/08/22 02:45:05;;;;;;;10.70;7.40;;;15.10;93.80;;;;;;5030887;28;20078;-69
2023/08/22 02:47:31;;;;;;;12.63;7.67;;;15.10;93.60;;;;;;5030590;28;20319;-69
2023/08/22 02:49:57;;;;;;;11.00;7.60;;;15.10;93.90;;;;;;5030455;28;20382;-69
2023/08/22 02:52:24;;;;;;;8.80;6.73;;;15.10;93.90;;;;;;5030031;28;20295;-69
2023/08/22 02:54:51;;;;;;;12.33;7.10;;;15.10;93.80;;;;;;5028055;28;20315;-69
2023/08/22 02:57:16;;;;;;;9.33;6.47;;;15.00;93.60;;;;;;5026543;28;20299;-69
2023/08/22 02:59:42;;;;;;;10.20;6.90;;;14.90;93.60;;;;;;5014340;28;20279;-69
2023/08/22 03:02:08;;;;;;;9.20;6.80;;;14.90;93.70;;;;;;5028684;28;20071;-69
2023/08/22 03:04:36;;;;;;;12.10;7.60;;;14.80;93.60;;;;;;5027020;28;20528;-69
2023/08/22 03:07:03;;;;;;;13.80;9.10;;;14.80;93.70;;;;;;5029634;28;20069;-69
2023/08/22 03:09:29;;;;;;;12.97;8.03;;;14.80;94.00;;;;;;5029166;28;20284;-69
2023/08/22 03:11:55;;;;;;;12.63;7.80;;;14.70;94.30;;;;;;5029206;28;20283;-69
2023/08/22 03:14:21;;;;;;;12.17;7.50;;;14.70;94.40;;;;;;5030179;28;20286;-69
2023/08/22 03:16:47;;;;;;;11.23;7.20;;;14.70;94.50;;;;;;5009884;28;20033;-69
2023/08/22 03:19:12;;;;;;;13.03;8.30;;;14.70;94.70;;;;;;5032243;28;20051;-69
2023/08/22 03:21:38;;;;;;;10.97;7.30;;;14.70;95.10;;;;;;5030309;28;20041;-69
2023/08/22 03:24:04;;;;;;;13.60;8.03;;;14.70;95.10;;;;;;5029307;28;20346;-69
2023/08/22 03:26:30;;;;;;;12.50;7.53;;;14.70;95.20;;;;;;5030298;28;20053;-69
2023/08/22 03:28:56;;;;;;;11.97;7.47;;;14.70;95.10;;;;;;5012852;28;20771;-69
2023/08/22 03:31:22;;;;;;;12.30;7.17;;;14.80;95.10;;;;;;5029174;28;20303;-69
2023/08/22 03:33:48;;;;;;;10.60;6.47;;;14.80;95.30;;;;;;5019445;28;20045;-69
2023/08/22 03:36:14;;;;;;;11.93;7.10;;;14.80;95.40;;;;;;5027544;28;20872;-69
2023/08/22 03:38:39;;;;;;;10.90;7.10;;;14.80;95.40;;;;;;5025199;28;20132;-69
2023/08/22 03:41:05;;;;;;;14.23;7.97;;;14.80;95.80;;;;;;5029132;28;20033;-69
2023/08/22 03:43:31;;;;;;;14.73;7.10;;;14.80;96.00;;;;;;5026616;28;20525;-69
2023/08/22 03:45:56;;;;;;;12.40;7.83;;;14.80;95.90;;;;;;5027889;28;20048;-69
2023/08/22 03:48:22;;;;;;;10.47;6.77;;;14.80;95.90;;;;;;5030078;28;20060;-69
2023/08/22 03:50:48;;;;;;;14.30;7.70;;;14.80;95.80;;;;;;5030427;28;20069;-69
2023/08/22 03:53:15;;;;;;;13.50;7.30;;;14.80;95.90;;;;;;5028746;28;20508;-69
2023/08/22 03:55:43;;;;;;;10.30;6.83;;;14.80;95.90;;;;;;5027454;28;20036;-69
2023/08/22 03:58:09;;;;;;;10.53;6.97;;;14.80;95.90;;;;;;5029927;28;20283;-69
2023/08/22 04:00:35;;;;;;;10.07;6.53;;;14.80;95.70;;;;;;5029971;28;20409;-69
2023/08/22 04:03:01;;;;;;;10.40;6.07;;;14.70;95.70;;;;;;5012547;28;20295;-69
2023/08/22 04:05:26;;;;;;;8.80;6.37;;;14.70;95.70;;;;;;5028032;28;20033;-69
2023/08/22 04:07:52;;;;;;;8.87;6.43;;;14.60;95.70;;;;;;5028044;28;20037;-69
2023/08/22 04:10:19;;;;;;;9.30;6.60;;;14.60;95.80;;;;;;5029600;28;20517;-69
2023/08/22 04:12:44;;;;;;;9.50;5.63;;;14.50;95.80;;;;;;5029136;28;20029;-69
2023/08/22 04:15:11;;;;;;;9.43;6.20;;;14.50;96.10;;;;;;5023048;28;20287;-69
2023/08/22 04:17:41;;;;;;;9.47;6.07;;;14.40;96.00;;;;;;5030278;28;20295;-69
2023/08/22 04:20:10;;;;;;;9.77;5.67;;;14.40;96.10;;;;;;5024162;28;20334;-69
2023/08/22 04:22:36;;;;;;;9.20;5.67;;;14.40;96.20;;;;;;5024089;28;20298;-69
2023/08/22 04:25:04;;;;;;;9.97;5.73;;;14.40;96.10;;;;;;5028415;28;20295;-69
2023/08/22 04:27:30;;;;;;;11.90;5.60;;;14.30;96.20;;;;;;5028781;28;20315;-69
2023/08/22 04:29:56;;;;;;;8.70;5.80;;;14.30;96.30;;;;;;5026877;28;20287;-69
2023/08/22 04:32:21;;;;;;;9.40;5.47;;;14.30;96.30;;;;;;5027297;28;20044;-69
2023/08/22 04:34:47;;;;;;;10.00;5.70;;;14.30;96.40;;;;;;5024122;28;20061;-69
2023/08/22 04:37:13;;;;;;;8.27;5.57;;;14.30;96.40;;;;;;5023513;28;20044;-69
2023/08/22 04:39:38;;;;;;;9.53;5.77;;;14.30;96.40;;;;;;5026048;28;20119;-69
2023/08/22 04:42:04;;;;;;;10.10;6.23;;;14.30;96.40;;;;;;5031579;28;20128;-69
2023/08/22 04:44:30;;;;;;;9.63;6.47;;;14.20;96.20;;;;;;5027956;28;20668;-69
2023/08/22 04:46:56;;;;;;;9.17;5.67;;;14.20;96.30;;;;;;5032911;28;20315;-69
2023/08/22 04:49:23;;;;;;;11.43;6.40;;;14.20;96.30;;;;;;5027594;28;20038;-69
2023/08/22 04:51:49;;;;;;;13.07;6.00;;;14.20;96.30;;;;;;5029781;28;20767;-69
2023/08/22 04:54:15;;;;;;;9.63;6.20;;;14.20;96.40;;;;;;5031646;28;20370;-69
2023/08/22 04:56:41;;;;;;;10.30;6.20;;;14.20;96.40;;;;;;5032342;28;20041;-69
2023/08/22 04:59:07;;;;;;;10.53;6.80;;;14.30;96.50;;;;;;5013680;28;20044;-69
2023/08/22 05:01:33;;;;;;;11.23;6.87;;;14.40;96.70;;;;;;5033879;28;20291;-69
2023/08/22 05:03:59;;;;;;;13.43;7.30;;;14.40;96.70;;;;;;5032735;28;20285;-69
2023/08/22 05:06:25;;;;;;;11.00;7.47;;;14.50;96.70;;;;;;5032157;28;20059;-69
2023/08/22 05:08:50;;;;;;;10.90;7.53;;;14.50;96.80;;;;;;5011831;28;20029;-69
2023/08/22 05:11:16;;;;;;;11.30;7.43;;;14.60;96.80;;;;;;5033217;28;20581;-69
2023/08/22 05:13:42;;;;;;;11.00;7.80;;;14.60;96.80;;;;;;5032675;28;20052;-69
2023/08/22 05:16:07;;;;;;;12.90;8.67;;;14.70;96.90;;;;;;5032337;28;20396;-69
2023/08/22 05:18:33;;;;;;;12.03;7.73;;;14.80;96.90;;;;;;5031875;28;20049;-69
2023/08/22 05:20:59;;;;;;;15.07;8.57;;;14.90;97.20;;;;;;5029431;28;20054;-69
2023/08/22 05:23:25;;;;;;;11.33;8.70;;;15.00;97.50;;;;;;5032233;28;20123;-69
2023/08/22 05:25:50;;;;;;;13.40;8.57;;;15.10;97.30;;;;;;5032585;28;20452;-69
2023/08/22 05:28:16;;;;;;;14.90;9.00;;;15.30;97.20;;;;;;5030697;28;20057;-69
2023/08/22 05:30:42;;;;;;;13.90;9.07;;;15.40;97.10;;;;;;5031755;28;20033;-69
2023/08/22 05:33:07;;;;;;;11.57;8.10;;;15.50;97.00;;;;;;5028010;28;20124;-69
2023/08/22 05:35:33;;;;;;;13.77;8.87;;;15.60;97.10;;;;;;5032293;28;20032;-70
2023/08/22 05:37:59;;;;;;;14.83;9.03;;;15.70;96.90;;;;;;5033034;28;20029;-70
2023/08/22 05:40:25;;;;;;;12.67;8.20;;;15.80;97.10;;;;;;5032016;28;20036;-70
2023/08/22 05:42:52;;;;;;;12.00;8.23;;;16.00;97.00;;;;;;5030095;28;20311;-70
2023/08/22 05:45:18;;;;;;;12.53;8.67;;;16.10;97.10;;;;;;5031143;28;20161;-70
2023/08/22 05:47:44;;;;;;;13.50;8.97;;;16.20;97.00;;;;;;5032383;28;20391;-70
2023/08/22 05:50:10;;;;;;;14.10;8.13;;;16.30;96.90;;;;;;5031773;28;20036;-70
2023/08/22 05:52:36;;;;;;;16.03;7.87;;;16.40;96.80;;;;;;5028688;28;20820;-70
2023/08/22 05:55:03;;;;;;;13.27;8.13;;;16.50;96.80;;;;;;5027595;28;20311;-70
2023/08/22 05:57:29;;;;;;;10.90;7.87;;;16.70;96.70;;;;;;5028944;28;20493;-70
2023/08/22 05:59:55;;;;;;;10.37;7.27;;;16.80;96.50;;;;;;5028005;28;20283;-70
2023/08/22 06:02:21;;;;;;;13.50;8.57;;;16.90;96.50;;;;;;5029019;28;20644;-70
2023/08/22 06:04:47;;;;;;;12.80;8.20;;;17.10;96.50;;;;;;5025386;28;20307;-70
2023/08/22 06:07:13;;;;;;;10.30;7.87;;;17.30;96.30;;;;;;5026959;28;20037;-70
2023/08/22 06:09:39;;;;;;;12.77;7.13;;;17.40;95.90;;;;;;5027936;28;20660;-70
2023/08/22 06:12:05;;;;;;;9.90;6.87;;;17.50;95.50;;;;;;5028107;28;20057;-70
2023/08/22 06:14:31;;;;;;;9.30;6.77;;;17.50;95.20;;;;;;5031504;28;20045;-70
2023/08/22 06:16:58;;;;;;;10.97;7.00;;;17.60;94.90;;;;;;5014769;28;20558;-70
2023/08/22 06:19:24;;;;;;;13.53;7.10;;;17.60;94.90;;;;;;5029690;28;20449;-70
2023/08/22 06:21:50;;;;;;;12.23;7.70;;;17.70;94.80;;;;;;5021791;28;20386;-70
2023/08/22 06:24:16;;;;;;;12.17;7.70;;;17.80;94.80;;;;;;5028646;28;20295;-70
2023/08/22 06:26:42;;;;;;;11.53;7.53;;;17.90;94.60;;;;;;5029660;28;20106;-70
2023/08/22 06:29:08;;;;;;;10.03;6.87;;;18.00;94.50;;;;;;5013695;28;20041;-70
2023/08/22 06:31:34;;;;;;;11.80;7.13;;;18.20;94.30;;;;;;5031290;28;20037;-70
2023/08/22 06:34:00;;;;;;;10.73;7.63;;;18.30;94.10;;;;;;5029722;28;20768;-70
2023/08/22 06:36:27;;;;;;;11.07;6.43;;;18.50;93.70;;;;;;5029417;28;20279;-70
2023/08/22 06:38:53;;;;;;;12.73;7.20;;;18.60;93.40;;;;;;5023885;28;20359;-70
2023/08/22 06:41:19;;;;;;;9.97;7.10;;;18.70;92.90;;;;;;5029070;28;20428;-70
2023/08/22 06:43:45;;;;;;;10.07;6.73;;;18.80;92.80;;;;;;5029477;28;20037;-70
2023/08/22 06:46:10;;;;;;;10.13;6.53;;;18.80;92.50;;;;;;5028639;28;20072;-70
2023/08/22 06:48:36;;;;;;;7.83;5.90;;;18.90;92.50;;;;;;5026805;28;20426;-70
2023/08/22 06:51:02;;;;;;;9.57;6.77;;;19.10;92.40;;;;;;5029972;28;20121;-70
2023/08/22 06:53:27;;;;;;;9.50;6.20;;;19.20;92.30;;;;;;5029605;28;20037;-70
2023/08/22 06:55:54;;;;;;;9.90;5.97;;;19.30;92.00;;;;;;5025070;28;20052;-70
2023/08/22 06:58:20;;;;;;;9.63;5.90;;;19.40;91.70;;;;;;5029267;28;20094;-70
2023/08/22 07:00:46;;;;;;;10.67;6.20;;;19.40;91.40;;;;;;5028300;28;20553;-70
2023/08/22 07:03:12;;;;;;;11.83;6.03;;;19.50;91.10;;;;;;5028173;28;20037;-70
2023/08/22 07:05:37;;;;;;;7.17;4.80;;;19.50;90.70;;;;;;5028184;28;20033;-70
2023/08/22 07:08:03;;;;;;;8.03;5.50;;;19.50;90.30;;;;;;5031121;28;20171;-70
2023/08/22 07:10:29;;;;;;;9.57;5.07;;;19.60;90.50;;;;;;5022774;28;20047;-70
2023/08/22 07:12:55;;;;;;;8.30;4.70;;;19.70;90.30;;;;;;5025491;28;20046;-70
2023/08/22 07:15:21;;;;;;;6.87;4.13;;;19.70;89.30;;;;;;5028253;28;20041;-70
2023/08/22 07:17:47;;;;;;;6.93;3.50;;;19.70;89.40;;;;;;5029056;28;20067;-70
2023/08/22 07:20:13;;;;;;;6.23;3.70;;;19.70;88.70;;;;;;5020367;28;20186;-71
2023/08/22 07:22:39;;;;;;;5.73;3.50;;;19.70;88.00;;;;;;5019752;28;20124;-70
2023/08/22 07:25:05;;;;;;;7.20;3.33;;;19.70;88.10;;;;;;5026279;28;20491;-72
2023/08/22 07:27:31;;;;;;;8.93;3.50;;;19.70;88.20;;;;;;5027682;28;20460;-72
2023/08/22 07:29:57;;;;;;;6.00;3.67;;;19.70;88.10;;;;;;5029100;28;20115;-71
2023/08/22 07:32:23;;;;;;;5.73;3.00;;;19.70;87.30;;;;;;5027703;28;20080;-71
2023/08/22 07:34:48;;;;;;;6.80;3.30;;;19.80;87.70;;;;;;5027879;28;20049;-71
2023/08/22 07:37:14;;;;;;;8.67;4.20;;;19.90;87.60;;;;;;5029945;28;20441;-71
2023/08/22 07:39:41;;;;;;;9.37;4.43;;;20.00;87.40;;;;;;5025558;28;20075;-69
2023/08/22 07:42:07;;;;;;;7.13;4.10;;;20.20;87.50;;;;;;5024249;28;20479;-69
2023/08/22 07:44:33;;;;;;;6.53;3.83;;;20.20;86.30;;;;;;5029365;28;20051;-69
2023/08/22 07:46:58;;;;;;;6.57;3.30;;;20.20;85.50;;;;;;5045688;28;20036;-69
2023/08/22 07:49:25;;;;;;;10.17;4.47;;;20.20;85.90;;;;;;5028450;28;20048;-69
2023/08/22 07:51:51;;;;;;;9.23;4.50;;;20.20;85.00;;;;;;5030078;28;20478;-69
2023/08/22 07:54:17;;;;;;;6.63;4.10;;;20.20;84.80;;;;;;5040873;28;20048;-69
2023/08/22 07:56:44;;;;;;;9.23;4.20;;;20.20;85.50;;;;;;5025125;28;20532;-69
2023/08/22 07:59:12;;;;;;;8.27;4.07;;;20.20;86.00;;;;;;5026608;28;20072;-69
2023/08/22 08:01:38;;;;;;;7.67;4.20;;;20.30;86.40;;;;;;5028033;28;20045;-69
2023/08/22 08:04:04;;;;;;;11.33;4.40;;;20.40;86.10;;;;;;5027327;28;20052;-69
2023/08/22 08:06:36;;;;;;;10.60;5.20;;;20.50;85.60;;;;;;5012783;28;20041;-69
2023/08/22 08:09:04;;;;;;;10.80;5.33;;;20.50;85.30;;;;;;5029773;28;20041;-69
2023/08/22 08:11:30;;;;;;;8.63;4.47;;;20.60;85.60;;;;;;5024872;28;20045;-69
2023/08/22 08:13:57;;;;;;;7.57;5.07;;;20.80;85.70;;;;;;5013486;28;20056;-69
2023/08/22 08:16:23;;;;;;;10.73;5.80;;;21.10;85.60;;;;;;5017830;28;20600;-69
2023/08/22 08:18:51;;;;;;;7.27;4.63;;;21.40;85.10;;;;;;5033526;28;20075;-69
2023/08/22 08:21:17;;;;;;;9.73;5.10;;;21.80;84.70;;;;;;5027851;28;20059;-70
2023/08/22 08:23:44;;;;;;;8.97;5.20;;;22.10;82.90;;;;;;5016870;28;20480;-69
2023/08/22 08:26:11;;;;;;;9.80;5.57;;;22.20;80.80;;;;;;5029382;28;20077;-69
2023/08/22 08:28:37;;;;;;;10.97;5.40;;;22.10;79.40;;;;;;5032921;28;20485;-69
2023/08/22 08:31:02;;;;;;;10.47;5.70;;;22.00;79.80;;;;;;5033255;28;20029;-69
2023/08/22 08:33:28;;;;;;;7.93;4.87;;;22.10;80.90;;;;;;5033745;28;20052;-70
2023/08/22 08:35:54;;;;;;;10.10;5.77;;;22.30;81.50;;;;;;5032867;28;20134;-70
2023/08/22 08:38:20;;;;;;;9.30;5.30;;;22.60;81.40;;;;;;5029668;28;20167;-70
2023/08/22 08:40:46;;;;;;;7.70;4.20;;;22.70;80.00;;;;;;5031902;28;20040;-70
2023/08/22 08:43:12;;;;;;;10.30;4.67;;;22.90;79.20;;;;;;5033519;28;20040;-71
2023/08/22 08:45:40;;;;;;;10.30;4.83;;;22.90;78.90;;;;;;5033524;28;20041;-71
2023/08/22 08:48:06;;;;;;;7.97;4.00;;;22.90;78.60;;;;;;5030616;28;20056;-71
2023/08/22 08:50:33;;;;;;;9.90;4.23;;;22.90;78.50;;;;;;5030462;28;20033;-71
2023/08/22 08:52:59;;;;;;;7.37;4.57;;;22.90;78.90;;;;;;5030061;28;20070;-71
2023/08/22 08:55:25;;;;;;;7.53;3.60;;;22.90;79.10;;;;;;5025553;28;20080;-71
2023/08/22 08:57:56;;;;;;;6.07;3.40;;;22.80;78.60;;;;;;5028072;28;20416;-71
2023/08/22 09:00:22;;;;;;;7.43;3.60;;;22.70;78.50;;;;;;5026750;28;20060;-71
2023/08/22 09:02:48;;;;;;;8.43;4.27;;;22.60;78.10;;;;;;5028213;28;20068;-71
2023/08/22 09:05:15;;;;;;;8.13;4.13;;;22.50;78.70;;;;;;5014426;28;20134;-71
2023/08/22 09:07:43;;;;;;;7.73;4.03;;;22.40;78.70;;;;;;5031396;28;20041;-71
2023/08/22 09:10:09;;;;;;;7.60;4.30;;;22.20;78.90;;;;;;5024857;28;20052;-71
2023/08/22 09:12:37;;;;;;;10.50;4.00;;;22.00;78.90;;;;;;5031000;28;20469;-71
2023/08/22 09:15:07;;;;;;;6.87;3.87;;;21.90;79.30;;;;;;5033161;28;20037;-71
2023/08/22 09:17:33;;;;;;;7.50;4.17;;;21.80;79.80;;;;;;5033283;28;20052;-71
2023/08/22 09:19:59;;;;;;;7.93;5.03;;;21.90;80.20;;;;;;5031442;28;20401;-71
2023/08/22 09:22:31;;;;;;;9.33;4.67;;;22.00;80.10;;;;;;5030411;28;20044;-71
2023/08/22 09:24:57;;;;;;;10.80;5.30;;;22.20;80.10;;;;;;5030770;28;20041;-71
2023/08/22 09:27:27;;;;;;;10.60;5.70;;;22.20;79.50;;;;;;5033363;28;20051;-71
2023/08/22 09:30:01;;;;;;;9.87;6.03;;;22.40;80.40;;;;;;5031163;28;20042;-71
2023/08/22 09:32:27;;;;;;;10.83;6.13;;;22.40;78.90;;;;;;5030219;28;20036;-71
2023/08/22 09:34:58;;;;;;;12.60;5.60;;;22.40;78.40;;;;;;5027665;28;20451;-71
2023/08/22 09:37:31;;;;;;;10.07;5.40;;;22.30;77.50;;;;;;5028022;28;20511;-71
2023/08/22 09:39:57;;;;;;;7.90;4.87;;;22.20;78.20;;;;;;5014466;28;20049;-71
2023/08/22 09:42:29;;;;;;;9.70;5.73;;;22.10;78.90;;;;;;5028172;28;20090;-71
2023/08/22 09:44:59;;;;;;;8.70;5.50;;;22.20;79.90;;;;;;5029086;28;20393;-71
2023/08/22 09:47:29;;;;;;;12.73;6.43;;;22.40;80.20;;;;;;5014949;28;20118;-71
2023/08/22 09:49:58;;;;;;;10.83;5.97;;;22.70;79.50;;;;;;5036224;28;20033;-71
2023/08/22 09:52:25;;;;;;;8.33;5.40;;;22.80;79.20;;;;;;5031428;28;20041;-71
2023/08/22 09:54:55;;;;;;;8.20;5.20;;;22.90;79.40;;;;;;5035623;28;20043;-71
2023/08/22 09:57:23;;;;;;;11.83;5.57;;;23.10;78.60;;;;;;5027673;28;20064;-71
2023/08/22 09:59:49;;;;;;;8.87;5.77;;;23.10;78.60;;;;;;5031612;28;20051;-71
2023/08/22 10:02:18;;;;;;;8.53;4.90;;;23.10;77.30;;;;;;5029823;28;20044;-71
2023/08/22 10:04:44;;;;;;;7.97;4.70;;;23.10;77.90;;;;;;5025325;28;20044;-71
2023/08/22 10:07:10;;;;;;;9.13;5.30;;;23.20;77.70;;;;;;5024763;28;20037;-71
2023/08/22 10:09:38;;;;;;;7.77;4.57;;;23.40;77.40;;;;;;5029949;28;20738;-71
2023/08/22 10:12:07;;;;;;;8.37;4.80;;;23.50;75.80;;;;;;5013235;28;20037;-71
2023/08/22 10:14:39;;;;;;;8.37;5.00;;;23.40;76.00;;;;;;5031114;28;20067;-71
2023/08/22 10:17:10;;;;;;;14.37;6.30;;;23.20;75.70;;;;;;5024524;28;20034;-71
2023/08/22 10:19:37;;;;;;;5.63;3.87;;;23.20;75.70;;;;;;5032786;28;20037;-71
2023/08/22 10:22:09;;;;;;;9.27;5.50;;;23.20;76.40;;;;;;5028764;28;20539;-71
2023/08/22 10:24:35;;;;;;;8.27;5.40;;;23.30;76.40;;;;;;5023142;28;20047;-72
2023/08/22 10:27:03;;;;;;;10.90;6.30;;;23.50;75.70;;;;;;5028092;28;20049;-72
2023/08/22 10:29:37;;;;;;;10.50;6.07;;;23.50;75.00;;;;;;5029220;28;20839;-72
2023/08/22 10:32:02;;;;;;;10.47;5.47;;;23.40;73.60;;;;;;5012347;28;20055;-72
2023/08/22 10:34:34;;;;;;;11.57;5.90;;;23.40;74.70;;;;;;5027386;28;20045;-72
2023/08/22 10:37:01;;;;;;;8.87;5.07;;;23.50;75.10;;;;;;5027358;28;20045;-72
2023/08/22 10:39:43;;;;;;;5.70;3.03;;;23.60;73.20;;;;;;5018795;28;20132;-72
2023/08/22 10:42:23;;;;;;;6.40;3.63;;;23.60;72.60;;;;;;5028144;28;20037;-72
2023/08/22 10:44:49;;;;;;;5.70;3.80;;;23.80;71.40;;;;;;5029952;28;20116;-72
2023/08/22 10:47:27;;;;;;;8.97;4.83;;;23.80;71.50;;;;;;5024032;28;20072;-72
2023/08/22 10:49:57;;;;;;;6.67;4.37;;;23.90;71.20;;;;;;5025813;28;20385;-72
2023/08/22 10:52:33;;;;;;;8.10;4.30;;;23.90;70.80;;;;;;5042547;28;20071;-72
2023/08/22 10:55:08;;;;;;;10.33;4.40;;;24.00;71.50;;;;;;5014210;28;20037;-72
2023/08/22 10:57:38;;;;;;;6.70;4.93;;;24.10;71.50;;;;;;5029149;28;20033;-72
2023/08/22 11:00:14;;;;;;;6.80;4.73;;;24.00;70.40;;;;;;5031470;28;20119;-72
2023/08/22 11:02:42;;;;;;;9.07;4.43;;;23.80;69.50;;;;;;5029250;28;20048;-72
2023/08/22 11:05:12;;;;;;;11.07;4.83;;;23.80;70.90;;;;;;5030271;28;20064;-72
2023/08/22 11:07:40;;;;;;;9.17;5.50;;;23.90;70.70;;;;;;5024485;28;20045;-72
2023/08/22 11:10:08;;;;;;;9.17;4.60;;;24.20;71.30;;;;;;5012063;28;20388;-72
2023/08/22 11:12:33;;;;;;;9.30;5.40;;;24.40;70.80;;;;;;5029357;28;20032;-72
2023/08/22 11:14:59;;;;;;;8.50;4.83;;;24.40;69.30;;;;;;5029681;28;20374;-72
2023/08/22 11:17:25;;;;;;;7.33;4.73;;;24.30;69.10;;;;;;5012656;28;20048;-72
2023/08/22 11:19:55;;;;;;;7.80;4.40;;;24.00;69.10;;;;;;5030876;28;20041;-72
2023/08/22 11:22:21;;;;;;;7.70;4.30;;;23.80;69.80;;;;;;5028137;28;20444;-72
2023/08/22 11:24:50;;;;;;;7.73;4.43;;;23.70;69.50;;;;;;5027387;28;20049;-72
2023/08/22 11:27:16;;;;;;;8.07;3.50;;;23.70;70.70;;;;;;5021360;28;20045;-72
2023/08/22 11:29:43;;;;;;;7.43;4.07;;;23.70;71.00;;;;;;5010991;28;20510;-72
2023/08/22 11:32:20;;;;;;;5.40;2.83;;;23.90;70.50;;;;;;5010275;28;20073;-72
2023/08/22 11:34:46;;;;;;;5.63;3.60;;;24.00;70.20;;;;;;5004668;28;20402;-72
2023/08/22 11:37:12;;;;;;;6.47;3.40;;;24.20;67.60;;;;;;5010114;28;20045;-72
2023/08/22 11:39:38;;;;;;;7.73;3.13;;;24.30;68.60;;;;;;5006916;28;20056;-72
2023/08/22 11:42:04;;;;;;;8.30;3.40;;;24.50;67.60;;;;;;5010355;28;20445;-72
2023/08/22 11:44:30;;;;;;;7.23;3.77;;;24.70;66.00;;;;;;4993429;28;20051;-72
2023/08/22 11:46:55;;;;;;;6.90;4.17;;;24.70;66.00;;;;;;5010392;28;20490;-72
2023/08/22 11:49:21;;;;;;;8.73;3.50;;;24.80;65.20;;;;;;5025610;28;20072;-72
2023/08/22 11:51:53;;;;;;;9.13;3.57;;;24.90;65.40;;;;;;5010234;28;20077;-72
2023/08/22 11:54:26;;;;;;;10.23;4.37;;;25.10;65.00;;;;;;5009806;28;20045;-72
2023/08/22 11:56:58;;;;;;;7.80;3.43;;;25.30;64.30;;;;;;5009156;28;20037;-72
2023/08/22 11:59:23;;;;;;;9.10;3.33;;;25.30;62.20;;;;;;5003119;28;20538;-72
2023/08/22 12:01:49;;;;;;;8.97;4.10;;;25.30;63.50;;;;;;5005152;28;20042;-72
2023/08/22 12:04:16;;;;;;;8.17;3.97;;;25.30;62.00;;;;;;5008774;28;20052;-72
2023/08/22 12:06:41;;;;;;;8.67;4.10;;;25.10;63.10;;;;;;5004376;28;20041;-72
2023/08/22 12:09:11;;;;;;;7.00;3.63;;;25.10;63.40;;;;;;5006147;28;20042;-72
2023/08/22 12:11:37;;;;;;;6.73;3.07;;;25.10;64.70;;;;;;5010897;28;20490;-72
2023/08/22 12:14:03;;;;;;;8.03;3.00;;;25.30;65.30;;;;;;5010608;28;20103;-72
2023/08/22 12:16:28;;;;;;;5.03;3.03;;;25.40;63.90;;;;;;4993872;28;20486;-72
2023/08/22 12:18:54;;;;;;;7.97;3.23;;;25.30;63.00;;;;;;5024706;28;20037;-72
2023/08/22 12:21:20;;;;;;;6.27;2.80;;;25.40;64.10;;;;;;5010012;28;20114;-71
2023/08/22 12:23:46;;;;;;;14.57;2.90;;;25.40;63.60;;;;;;5013998;28;20573;-72
2023/08/22 12:26:11;;;;;;;5.87;2.37;;;25.40;63.90;;;;;;4992500;28;20046;-72
2023/08/22 12:28:37;;;;;;;6.70;3.37;;;25.40;62.80;;;;;;5025765;28;20128;-72
2023/08/22 12:31:03;;;;;;;7.03;3.00;;;25.40;62.80;;;;;;5010018;28;20048;-72
2023/08/22 12:33:28;;;;;;;6.47;2.70;;;25.40;62.50;;;;;;4993898;28;20037;-72
2023/08/22 12:35:54;;;;;;;5.67;3.13;;;25.40;61.60;;;;;;5011075;28;20042;-72
2023/08/22 12:38:20;;;;;;;9.23;3.00;;;25.30;60.80;;;;;;5009988;28;20037;-73
2023/08/22 12:40:45;;;;;;;6.80;2.70;;;25.20;62.60;;;;;;5007825;28;20045;-72